sensor_id;sensor_type;location;lat;lon;timestamp;P1;durP1;ratioP1;P2;durP2;ratioP2
37641;SDS011;23486;51.956;5.888;2022-07-30T00:01:18;11.57;;;7.45;;
37641;SDS011;23486;51.956;5.888;2022-07-30T00:03:44;10.32;;;6.10;;
37641;SDS011;23486;51.956;5.888;2022-07-30T00:06:09;13.48;;;6.00;;
37641;SDS011;23486;51.956;5.888;2022-07-30T00:08:35;14.63;;;6.70;;
37641;SDS011;23486;51.956;5.888;2022-07-30T00:11:00;10.65;;;5.40;;
37641;SDS011;23486;51.956;5.888;2022-07-30T00:13:26;16.50;;;6.90;;
37641;SDS011;23486;51.956;5.888;2022-07-30T00:15:52;13.18;;;5.50;;
37641;SDS011;23486;51.956;5.888;2022-07-30T00:18:17;12.88;;;7.28;;
37641;SDS011;23486;51.956;5.888;2022-07-30T00:20:43;12.35;;;6.90;;
37641;SDS011;23486;51.956;5.888;2022-07-30T00:23:08;10.75;;;6.95;;
37641;SDS011;23486;51.956;5.888;2022-07-30T00:25:34;15.65;;;7.82;;
37641;SDS011;23486;51.956;5.888;2022-07-30T00:27:59;9.82;;;6.03;;
37641;SDS011;23486;51.956;5.888;2022-07-30T00:30:25;10.52;;;6.35;;
37641;SDS011;23486;51.956;5.888;2022-07-30T00:32:51;11.00;;;6.18;;
37641;SDS011;23486;51.956;5.888;2022-07-30T00:35:16;10.00;;;6.32;;
37641;SDS011;23486;51.956;5.888;2022-07-30T00:37:42;11.55;;;6.50;;
37641;SDS011;23486;51.956;5.888;2022-07-30T00:40:08;9.02;;;5.55;;
37641;SDS011;23486;51.956;5.888;2022-07-30T00:42:41;8.45;;;6.15;;
37641;SDS011;23486;51.956;5.888;2022-07-30T00:45:09;9.30;;;6.82;;
37641;SDS011;23486;51.956;5.888;2022-07-30T00:47:36;12.00;;;6.07;;
37641;SDS011;23486;51.956;5.888;2022-07-30T00:50:06;11.32;;;6.60;;
37641;SDS011;23486;51.956;5.888;2022-07-30T00:52:34;11.50;;;6.55;;
37641;SDS011;23486;51.956;5.888;2022-07-30T00:55:02;13.25;;;7.03;;
37641;SDS011;23486;51.956;5.888;2022-07-30T00:57:28;11.85;;;5.90;;
37641;SDS011;23486;51.956;5.888;2022-07-30T00:59:53;9.93;;;5.78;;
37641;SDS011;23486;51.956;5.888;2022-07-30T01:02:19;10.40;;;5.50;;
37641;SDS011;23486;51.956;5.888;2022-07-30T01:04:45;8.70;;;4.65;;
37641;SDS011;23486;51.956;5.888;2022-07-30T01:07:11;8.85;;;5.05;;
37641;SDS011;23486;51.956;5.888;2022-07-30T01:09:37;8.63;;;5.47;;
37641;SDS011;23486;51.956;5.888;2022-07-30T01:12:03;11.40;;;4.82;;
37641;SDS011;23486;51.956;5.888;2022-07-30T01:14:31;12.45;;;6.07;;
37641;SDS011;23486;51.956;5.888;2022-07-30T01:16:58;7.53;;;5.57;;
37641;SDS011;23486;51.956;5.888;2022-07-30T01:19:24;13.38;;;6.80;;
37641;SDS011;23486;51.956;5.888;2022-07-30T01:27:29;8.35;;;5.57;;
37641;SDS011;23486;51.956;5.888;2022-07-30T01:29:57;8.93;;;4.68;;
37641;SDS011;23486;51.956;5.888;2022-07-30T01:32:25;10.38;;;4.50;;
37641;SDS011;23486;51.956;5.888;2022-07-30T01:34:52;9.48;;;5.18;;
37641;SDS011;23486;51.956;5.888;2022-07-30T01:37:21;10.68;;;4.50;;
37641;SDS011;23486;51.956;5.888;2022-07-30T01:39:48;12.77;;;5.13;;
37641;SDS011;23486;51.956;5.888;2022-07-30T01:42:15;8.10;;;4.70;;
37641;SDS011;23486;51.956;5.888;2022-07-30T01:44:43;9.63;;;4.85;;
37641;SDS011;23486;51.956;5.888;2022-07-30T01:47:11;7.07;;;3.92;;
37641;SDS011;23486;51.956;5.888;2022-07-30T01:49:39;8.77;;;4.38;;
37641;SDS011;23486;51.956;5.888;2022-07-30T01:52:06;12.55;;;4.47;;
37641;SDS011;23486;51.956;5.888;2022-07-30T01:54:33;10.25;;;4.20;;
37641;SDS011;23486;51.956;5.888;2022-07-30T01:57:04;6.60;;;3.38;;
37641;SDS011;23486;51.956;5.888;2022-07-30T01:59:32;8.85;;;4.38;;
37641;SDS011;23486;51.956;5.888;2022-07-30T02:01:59;9.45;;;4.18;;
37641;SDS011;23486;51.956;5.888;2022-07-30T02:04:25;8.25;;;4.82;;
37641;SDS011;23486;51.956;5.888;2022-07-30T02:07:02;8.18;;;4.30;;
37641;SDS011;23486;51.956;5.888;2022-07-30T02:09:33;9.90;;;4.45;;
37641;SDS011;23486;51.956;5.888;2022-07-30T02:12:02;12.60;;;4.38;;
37641;SDS011;23486;51.956;5.888;2022-07-30T02:14:58;10.55;;;6.78;;
37641;SDS011;23486;51.956;5.888;2022-07-30T02:17:41;12.13;;;5.43;;
37641;SDS011;23486;51.956;5.888;2022-07-30T02:20:13;6.75;;;4.80;;
37641;SDS011;23486;51.956;5.888;2022-07-30T02:22:51;8.57;;;5.75;;
37641;SDS011;23486;51.956;5.888;2022-07-30T02:25:20;9.95;;;5.75;;
37641;SDS011;23486;51.956;5.888;2022-07-30T02:27:51;12.48;;;5.25;;
37641;SDS011;23486;51.956;5.888;2022-07-30T02:30:22;9.80;;;6.55;;
37641;SDS011;23486;51.956;5.888;2022-07-30T02:32:51;11.05;;;5.70;;
37641;SDS011;23486;51.956;5.888;2022-07-30T02:35:21;12.02;;;6.97;;
37641;SDS011;23486;51.956;5.888;2022-07-30T02:37:50;16.35;;;8.02;;
37641;SDS011;23486;51.956;5.888;2022-07-30T02:40:19;11.07;;;6.57;;
37641;SDS011;23486;51.956;5.888;2022-07-30T02:42:48;15.65;;;7.07;;
37641;SDS011;23486;51.956;5.888;2022-07-30T02:45:15;12.73;;;6.93;;
37641;SDS011;23486;51.956;5.888;2022-07-30T02:47:42;10.30;;;6.72;;
37641;SDS011;23486;51.956;5.888;2022-07-30T02:50:09;11.52;;;6.85;;
37641;SDS011;23486;51.956;5.888;2022-07-30T02:52:36;14.43;;;7.60;;
37641;SDS011;23486;51.956;5.888;2022-07-30T02:55:03;17.38;;;6.80;;
37641;SDS011;23486;51.956;5.888;2022-07-30T02:57:31;12.73;;;8.85;;
37641;SDS011;23486;51.956;5.888;2022-07-30T02:59:58;16.50;;;8.50;;
37641;SDS011;23486;51.956;5.888;2022-07-30T03:02:25;14.43;;;8.02;;
37641;SDS011;23486;51.956;5.888;2022-07-30T03:04:51;13.23;;;8.27;;
37641;SDS011;23486;51.956;5.888;2022-07-30T03:07:18;10.00;;;7.95;;
37641;SDS011;23486;51.956;5.888;2022-07-30T03:09:44;12.60;;;9.63;;
37641;SDS011;23486;51.956;5.888;2022-07-30T03:12:11;17.42;;;9.70;;
37641;SDS011;23486;51.956;5.888;2022-07-30T03:14:39;14.80;;;11.07;;
37641;SDS011;23486;51.956;5.888;2022-07-30T03:17:05;21.67;;;14.88;;
37641;SDS011;23486;51.956;5.888;2022-07-30T03:19:36;17.00;;;12.75;;
37641;SDS011;23486;51.956;5.888;2022-07-30T03:22:04;22.70;;;14.35;;
37641;SDS011;23486;51.956;5.888;2022-07-30T03:24:32;19.15;;;12.35;;
37641;SDS011;23486;51.956;5.888;2022-07-30T03:26:59;20.38;;;14.82;;
37641;SDS011;23486;51.956;5.888;2022-07-30T03:29:27;16.73;;;11.30;;
37641;SDS011;23486;51.956;5.888;2022-07-30T03:31:55;14.80;;;10.23;;
37641;SDS011;23486;51.956;5.888;2022-07-30T03:34:24;14.93;;;9.65;;
37641;SDS011;23486;51.956;5.888;2022-07-30T03:36:54;18.35;;;12.45;;
37641;SDS011;23486;51.956;5.888;2022-07-30T03:39:20;16.80;;;12.63;;
37641;SDS011;23486;51.956;5.888;2022-07-30T03:41:47;20.60;;;13.60;;
37641;SDS011;23486;51.956;5.888;2022-07-30T03:44:13;15.07;;;10.73;;
37641;SDS011;23486;51.956;5.888;2022-07-30T03:46:39;12.63;;;9.82;;
37641;SDS011;23486;51.956;5.888;2022-07-30T03:49:07;16.52;;;10.18;;
37641;SDS011;23486;51.956;5.888;2022-07-30T03:51:34;18.40;;;13.00;;
37641;SDS011;23486;51.956;5.888;2022-07-30T03:54:01;15.98;;;12.20;;
37641;SDS011;23486;51.956;5.888;2022-07-30T03:56:29;15.70;;;10.63;;
37641;SDS011;23486;51.956;5.888;2022-07-30T03:58:55;14.07;;;10.98;;
37641;SDS011;23486;51.956;5.888;2022-07-30T04:01:24;18.67;;;12.07;;
37641;SDS011;23486;51.956;5.888;2022-07-30T04:03:53;18.58;;;12.23;;
37641;SDS011;23486;51.956;5.888;2022-07-30T04:06:18;15.40;;;10.10;;
37641;SDS011;23486;51.956;5.888;2022-07-30T04:08:44;18.98;;;12.55;;
37641;SDS011;23486;51.956;5.888;2022-07-30T04:11:10;17.15;;;12.07;;
37641;SDS011;23486;51.956;5.888;2022-07-30T04:13:35;18.92;;;12.02;;
37641;SDS011;23486;51.956;5.888;2022-07-30T04:16:03;11.98;;;9.95;;
37641;SDS011;23486;51.956;5.888;2022-07-30T04:18:32;16.23;;;13.55;;
37641;SDS011;23486;51.956;5.888;2022-07-30T04:21:02;16.65;;;11.80;;
37641;SDS011;23486;51.956;5.888;2022-07-30T04:23:31;11.73;;;9.77;;
37641;SDS011;23486;51.956;5.888;2022-07-30T04:25:57;14.98;;;7.43;;
37641;SDS011;23486;51.956;5.888;2022-07-30T04:28:25;12.75;;;7.35;;
37641;SDS011;23486;51.956;5.888;2022-07-30T04:30:52;12.38;;;8.95;;
37641;SDS011;23486;51.956;5.888;2022-07-30T04:33:18;11.80;;;7.97;;
37641;SDS011;23486;51.956;5.888;2022-07-30T04:35:44;9.55;;;6.85;;
37641;SDS011;23486;51.956;5.888;2022-07-30T04:38:10;18.92;;;8.32;;
37641;SDS011;23486;51.956;5.888;2022-07-30T04:40:38;12.82;;;7.72;;
37641;SDS011;23486;51.956;5.888;2022-07-30T04:43:04;12.75;;;6.93;;
37641;SDS011;23486;51.956;5.888;2022-07-30T04:45:30;13.82;;;8.57;;
37641;SDS011;23486;51.956;5.888;2022-07-30T04:47:55;11.25;;;7.78;;
37641;SDS011;23486;51.956;5.888;2022-07-30T04:50:21;11.20;;;7.55;;
37641;SDS011;23486;51.956;5.888;2022-07-30T04:52:50;12.60;;;8.15;;
37641;SDS011;23486;51.956;5.888;2022-07-30T04:55:17;14.00;;;8.80;;
37641;SDS011;23486;51.956;5.888;2022-07-30T04:57:44;15.30;;;8.75;;
37641;SDS011;23486;51.956;5.888;2022-07-30T05:00:12;11.98;;;7.15;;
37641;SDS011;23486;51.956;5.888;2022-07-30T05:02:38;13.75;;;7.90;;
37641;SDS011;23486;51.956;5.888;2022-07-30T05:05:05;9.73;;;6.38;;
37641;SDS011;23486;51.956;5.888;2022-07-30T05:07:32;13.45;;;7.72;;
37641;SDS011;23486;51.956;5.888;2022-07-30T05:09:59;9.63;;;7.13;;
37641;SDS011;23486;51.956;5.888;2022-07-30T05:12:31;16.90;;;7.85;;
37641;SDS011;23486;51.956;5.888;2022-07-30T05:15:02;11.65;;;7.13;;
37641;SDS011;23486;51.956;5.888;2022-07-30T05:17:34;9.65;;;7.32;;
37641;SDS011;23486;51.956;5.888;2022-07-30T05:20:01;15.15;;;8.18;;
37641;SDS011;23486;51.956;5.888;2022-07-30T05:22:26;12.32;;;7.00;;
37641;SDS011;23486;51.956;5.888;2022-07-30T05:24:55;11.60;;;7.10;;
37641;SDS011;23486;51.956;5.888;2022-07-30T05:27:22;9.23;;;6.60;;
37641;SDS011;23486;51.956;5.888;2022-07-30T05:29:47;8.93;;;7.53;;
37641;SDS011;23486;51.956;5.888;2022-07-30T05:32:16;8.85;;;7.30;;
37641;SDS011;23486;51.956;5.888;2022-07-30T05:34:41;15.52;;;9.13;;
37641;SDS011;23486;51.956;5.888;2022-07-30T05:37:07;9.07;;;6.32;;
37641;SDS011;23486;51.956;5.888;2022-07-30T05:39:33;8.18;;;6.55;;
37641;SDS011;23486;51.956;5.888;2022-07-30T05:41:58;10.65;;;6.97;;
37641;SDS011;23486;51.956;5.888;2022-07-30T05:44:24;8.15;;;5.70;;
37641;SDS011;23486;51.956;5.888;2022-07-30T05:46:49;12.27;;;7.45;;
37641;SDS011;23486;51.956;5.888;2022-07-30T05:49:21;10.57;;;6.78;;
37641;SDS011;23486;51.956;5.888;2022-07-30T05:51:46;10.10;;;6.10;;
37641;SDS011;23486;51.956;5.888;2022-07-30T05:54:12;11.20;;;6.72;;
37641;SDS011;23486;51.956;5.888;2022-07-30T05:56:37;14.63;;;8.05;;
37641;SDS011;23486;51.956;5.888;2022-07-30T05:59:04;11.75;;;5.80;;
37641;SDS011;23486;51.956;5.888;2022-07-30T06:01:36;11.13;;;5.80;;
37641;SDS011;23486;51.956;5.888;2022-07-30T06:04:02;7.13;;;4.97;;
37641;SDS011;23486;51.956;5.888;2022-07-30T06:06:30;9.88;;;5.47;;
37641;SDS011;23486;51.956;5.888;2022-07-30T06:08:56;9.02;;;5.85;;
37641;SDS011;23486;51.956;5.888;2022-07-30T06:11:21;12.35;;;5.82;;
37641;SDS011;23486;51.956;5.888;2022-07-30T06:13:47;8.43;;;4.97;;
37641;SDS011;23486;51.956;5.888;2022-07-30T06:16:12;12.63;;;5.15;;
37641;SDS011;23486;51.956;5.888;2022-07-30T06:18:38;8.35;;;4.70;;
37641;SDS011;23486;51.956;5.888;2022-07-30T06:21:04;8.82;;;5.53;;
37641;SDS011;23486;51.956;5.888;2022-07-30T06:23:29;10.65;;;5.93;;
37641;SDS011;23486;51.956;5.888;2022-07-30T06:25:55;11.68;;;5.95;;
37641;SDS011;23486;51.956;5.888;2022-07-30T06:28:20;9.25;;;4.95;;
37641;SDS011;23486;51.956;5.888;2022-07-30T06:30:46;10.63;;;6.20;;
37641;SDS011;23486;51.956;5.888;2022-07-30T06:33:13;8.75;;;5.47;;
37641;SDS011;23486;51.956;5.888;2022-07-30T06:35:41;10.70;;;4.68;;
37641;SDS011;23486;51.956;5.888;2022-07-30T06:38:07;8.05;;;4.80;;
37641;SDS011;23486;51.956;5.888;2022-07-30T06:40:33;9.02;;;4.47;;
37641;SDS011;23486;51.956;5.888;2022-07-30T06:42:59;12.27;;;4.93;;
37641;SDS011;23486;51.956;5.888;2022-07-30T06:45:24;7.20;;;4.13;;
37641;SDS011;23486;51.956;5.888;2022-07-30T06:47:50;5.60;;;3.88;;
37641;SDS011;23486;51.956;5.888;2022-07-30T06:50:16;7.68;;;4.30;;
37641;SDS011;23486;51.956;5.888;2022-07-30T06:52:44;9.93;;;3.75;;
37641;SDS011;23486;51.956;5.888;2022-07-30T06:55:10;10.98;;;5.38;;
37641;SDS011;23486;51.956;5.888;2022-07-30T06:57:35;13.27;;;4.53;;
37641;SDS011;23486;51.956;5.888;2022-07-30T07:00:01;7.88;;;4.00;;
37641;SDS011;23486;51.956;5.888;2022-07-30T07:02:27;8.30;;;3.95;;
37641;SDS011;23486;51.956;5.888;2022-07-30T07:04:53;10.50;;;3.38;;
37641;SDS011;23486;51.956;5.888;2022-07-30T07:07:18;7.07;;;2.42;;
37641;SDS011;23486;51.956;5.888;2022-07-30T07:09:44;7.43;;;2.95;;
37641;SDS011;23486;51.956;5.888;2022-07-30T07:12:10;5.85;;;3.05;;
37641;SDS011;23486;51.956;5.888;2022-07-30T07:14:35;6.80;;;2.70;;
37641;SDS011;23486;51.956;5.888;2022-07-30T07:17:01;6.13;;;2.53;;
37641;SDS011;23486;51.956;5.888;2022-07-30T07:19:27;6.43;;;2.40;;
37641;SDS011;23486;51.956;5.888;2022-07-30T07:21:55;6.15;;;2.28;;
37641;SDS011;23486;51.956;5.888;2022-07-30T07:24:21;7.07;;;2.00;;
37641;SDS011;23486;51.956;5.888;2022-07-30T07:26:46;6.70;;;2.47;;
37641;SDS011;23486;51.956;5.888;2022-07-30T07:29:12;4.55;;;2.08;;
37641;SDS011;23486;51.956;5.888;2022-07-30T07:31:38;4.65;;;1.95;;
37641;SDS011;23486;51.956;5.888;2022-07-30T07:34:04;8.07;;;2.70;;
37641;SDS011;23486;51.956;5.888;2022-07-30T07:36:30;6.30;;;2.15;;
37641;SDS011;23486;51.956;5.888;2022-07-30T07:38:56;5.25;;;1.48;;
37641;SDS011;23486;51.956;5.888;2022-07-30T07:41:21;8.02;;;2.28;;
37641;SDS011;23486;51.956;5.888;2022-07-30T07:43:47;5.80;;;2.17;;
37641;SDS011;23486;51.956;5.888;2022-07-30T07:46:12;11.93;;;2.70;;
37641;SDS011;23486;51.956;5.888;2022-07-30T07:48:43;8.45;;;3.15;;
37641;SDS011;23486;51.956;5.888;2022-07-30T07:51:09;6.10;;;2.40;;
37641;SDS011;23486;51.956;5.888;2022-07-30T07:53:34;5.90;;;2.67;;
37641;SDS011;23486;51.956;5.888;2022-07-30T07:56:00;10.73;;;3.17;;
37641;SDS011;23486;51.956;5.888;2022-07-30T07:58:26;7.28;;;2.85;;
37641;SDS011;23486;51.956;5.888;2022-07-30T08:00:52;5.97;;;2.50;;
37641;SDS011;23486;51.956;5.888;2022-07-30T08:03:17;6.85;;;2.85;;
37641;SDS011;23486;51.956;5.888;2022-07-30T08:05:43;6.47;;;2.15;;
37641;SDS011;23486;51.956;5.888;2022-07-30T08:08:09;10.55;;;1.95;;
37641;SDS011;23486;51.956;5.888;2022-07-30T08:10:34;4.03;;;1.17;;
37641;SDS011;23486;51.956;5.888;2022-07-30T08:13:00;5.70;;;2.83;;
37641;SDS011;23486;51.956;5.888;2022-07-30T08:15:27;10.32;;;3.92;;
37641;SDS011;23486;51.956;5.888;2022-07-30T08:17:53;7.57;;;1.95;;
37641;SDS011;23486;51.956;5.888;2022-07-30T08:20:19;5.00;;;1.65;;
37641;SDS011;23486;51.956;5.888;2022-07-30T08:22:46;7.90;;;2.65;;
37641;SDS011;23486;51.956;5.888;2022-07-30T08:25:11;6.05;;;1.88;;
37641;SDS011;23486;51.956;5.888;2022-07-30T08:27:37;8.68;;;1.77;;
37641;SDS011;23486;51.956;5.888;2022-07-30T08:30:06;4.53;;;1.60;;
37641;SDS011;23486;51.956;5.888;2022-07-30T08:32:33;4.35;;;1.17;;
37641;SDS011;23486;51.956;5.888;2022-07-30T08:34:59;3.97;;;1.75;;
37641;SDS011;23486;51.956;5.888;2022-07-30T08:37:28;5.75;;;1.48;;
37641;SDS011;23486;51.956;5.888;2022-07-30T08:39:54;4.35;;;1.05;;
37641;SDS011;23486;51.956;5.888;2022-07-30T08:42:19;6.20;;;1.95;;
37641;SDS011;23486;51.956;5.888;2022-07-30T08:44:49;10.40;;;2.42;;
37641;SDS011;23486;51.956;5.888;2022-07-30T08:47:17;5.70;;;1.77;;
37641;SDS011;23486;51.956;5.888;2022-07-30T08:49:47;5.40;;;1.45;;
37641;SDS011;23486;51.956;5.888;2022-07-30T08:52:13;4.25;;;1.52;;
37641;SDS011;23486;51.956;5.888;2022-07-30T08:54:39;9.57;;;2.95;;
37641;SDS011;23486;51.956;5.888;2022-07-30T08:57:05;5.65;;;1.52;;
37641;SDS011;23486;51.956;5.888;2022-07-30T08:59:31;4.43;;;1.10;;
37641;SDS011;23486;51.956;5.888;2022-07-30T09:01:57;4.13;;;1.10;;
37641;SDS011;23486;51.956;5.888;2022-07-30T09:04:26;2.65;;;0.98;;
37641;SDS011;23486;51.956;5.888;2022-07-30T09:06:51;3.30;;;0.90;;
37641;SDS011;23486;51.956;5.888;2022-07-30T09:09:21;4.15;;;0.90;;
37641;SDS011;23486;51.956;5.888;2022-07-30T09:11:49;4.82;;;0.90;;
37641;SDS011;23486;51.956;5.888;2022-07-30T09:14:15;5.40;;;1.30;;
37641;SDS011;23486;51.956;5.888;2022-07-30T09:16:40;5.80;;;1.10;;
37641;SDS011;23486;51.956;5.888;2022-07-30T09:19:12;5.20;;;0.85;;
37641;SDS011;23486;51.956;5.888;2022-07-30T09:21:57;4.47;;;1.17;;
37641;SDS011;23486;51.956;5.888;2022-07-30T09:24:24;5.07;;;2.22;;
37641;SDS011;23486;51.956;5.888;2022-07-30T09:27:11;6.47;;;1.58;;
37641;SDS011;23486;51.956;5.888;2022-07-30T09:29:39;8.18;;;1.45;;
37641;SDS011;23486;51.956;5.888;2022-07-30T09:32:05;3.15;;;0.80;;
37641;SDS011;23486;51.956;5.888;2022-07-30T09:34:33;4.90;;;0.90;;
37641;SDS011;23486;51.956;5.888;2022-07-30T09:37:00;9.40;;;1.67;;
37641;SDS011;23486;51.956;5.888;2022-07-30T09:39:37;5.35;;;0.90;;
37641;SDS011;23486;51.956;5.888;2022-07-30T09:42:15;10.70;;;1.40;;
37641;SDS011;23486;51.956;5.888;2022-07-30T09:44:52;8.10;;;1.33;;
37641;SDS011;23486;51.956;5.888;2022-07-30T09:47:42;4.10;;;0.90;;
37641;SDS011;23486;51.956;5.888;2022-07-30T09:50:10;4.45;;;1.08;;
37641;SDS011;23486;51.956;5.888;2022-07-30T09:52:40;3.63;;;0.70;;
37641;SDS011;23486;51.956;5.888;2022-07-30T09:55:07;3.45;;;1.33;;
37641;SDS011;23486;51.956;5.888;2022-07-30T09:57:34;4.07;;;1.23;;
37641;SDS011;23486;51.956;5.888;2022-07-30T10:00:19;7.05;;;1.23;;
37641;SDS011;23486;51.956;5.888;2022-07-30T10:02:46;3.67;;;0.82;;
37641;SDS011;23486;51.956;5.888;2022-07-30T10:05:14;2.28;;;0.60;;
37641;SDS011;23486;51.956;5.888;2022-07-30T10:07:46;7.05;;;1.00;;
37641;SDS011;23486;51.956;5.888;2022-07-30T10:10:12;4.70;;;1.45;;
37641;SDS011;23486;51.956;5.888;2022-07-30T10:12:38;3.53;;;0.70;;
37641;SDS011;23486;51.956;5.888;2022-07-30T10:15:04;2.85;;;0.70;;
37641;SDS011;23486;51.956;5.888;2022-07-30T10:17:34;3.80;;;0.80;;
37641;SDS011;23486;51.956;5.888;2022-07-30T10:20:03;2.75;;;0.73;;
37641;SDS011;23486;51.956;5.888;2022-07-30T10:22:33;4.35;;;1.00;;
37641;SDS011;23486;51.956;5.888;2022-07-30T10:25:00;3.33;;;0.80;;
37641;SDS011;23486;51.956;5.888;2022-07-30T10:27:27;2.30;;;0.68;;
37641;SDS011;23486;51.956;5.888;2022-07-30T10:29:52;2.38;;;0.70;;
37641;SDS011;23486;51.956;5.888;2022-07-30T10:32:19;4.68;;;0.90;;
37641;SDS011;23486;51.956;5.888;2022-07-30T10:34:44;2.38;;;0.52;;
37641;SDS011;23486;51.956;5.888;2022-07-30T10:37:11;2.88;;;0.60;;
37641;SDS011;23486;51.956;5.888;2022-07-30T10:39:49;2.47;;;0.60;;
37641;SDS011;23486;51.956;5.888;2022-07-30T10:47:25;2.30;;;0.70;;
37641;SDS011;23486;51.956;5.888;2022-07-30T10:52:42;5.00;;;0.77;;
37641;SDS011;23486;51.956;5.888;2022-07-30T10:55:13;3.28;;;0.60;;
37641;SDS011;23486;51.956;5.888;2022-07-30T11:00:27;3.33;;;0.40;;
37641;SDS011;23486;51.956;5.888;2022-07-30T11:03:10;5.30;;;0.60;;
37641;SDS011;23486;51.956;5.888;2022-07-30T11:05:40;4.03;;;0.80;;
37641;SDS011;23486;51.956;5.888;2022-07-30T11:10:55;2.60;;;0.70;;
37641;SDS011;23486;51.956;5.888;2022-07-30T11:16:19;3.47;;;0.45;;
37641;SDS011;23486;51.956;5.888;2022-07-30T11:22:20;4.30;;;0.80;;
37641;SDS011;23486;51.956;5.888;2022-07-30T11:24:48;3.55;;;0.80;;
37641;SDS011;23486;51.956;5.888;2022-07-30T11:29:58;4.82;;;0.50;;
37641;SDS011;23486;51.956;5.888;2022-07-30T11:32:27;2.38;;;0.50;;
37641;SDS011;23486;51.956;5.888;2022-07-30T11:35:16;3.85;;;0.60;;
37641;SDS011;23486;51.956;5.888;2022-07-30T11:40:37;2.53;;;0.60;;
37641;SDS011;23486;51.956;5.888;2022-07-30T11:48:56;2.80;;;0.60;;
37641;SDS011;23486;51.956;5.888;2022-07-30T11:51:31;3.65;;;1.20;;
37641;SDS011;23486;51.956;5.888;2022-07-30T11:54:05;7.45;;;1.77;;
37641;SDS011;23486;51.956;5.888;2022-07-30T11:56:32;4.07;;;1.42;;
37641;SDS011;23486;51.956;5.888;2022-07-30T11:59:04;4.95;;;1.60;;
37641;SDS011;23486;51.956;5.888;2022-07-30T12:01:31;2.10;;;0.63;;
37641;SDS011;23486;51.956;5.888;2022-07-30T12:04:05;3.53;;;0.60;;
37641;SDS011;23486;51.956;5.888;2022-07-30T12:06:33;3.55;;;1.17;;
37641;SDS011;23486;51.956;5.888;2022-07-30T12:09:07;3.58;;;0.90;;
37641;SDS011;23486;51.956;5.888;2022-07-30T12:11:33;5.80;;;0.95;;
37641;SDS011;23486;51.956;5.888;2022-07-30T12:14:00;3.72;;;0.80;;
37641;SDS011;23486;51.956;5.888;2022-07-30T12:16:30;2.92;;;0.73;;
37641;SDS011;23486;51.956;5.888;2022-07-30T12:19:05;2.60;;;0.60;;
37641;SDS011;23486;51.956;5.888;2022-07-30T12:21:31;4.07;;;0.70;;
37641;SDS011;23486;51.956;5.888;2022-07-30T12:23:58;3.28;;;0.75;;
37641;SDS011;23486;51.956;5.888;2022-07-30T12:26:26;2.33;;;0.60;;
37641;SDS011;23486;51.956;5.888;2022-07-30T12:28:54;2.33;;;0.50;;
37641;SDS011;23486;51.956;5.888;2022-07-30T12:31:21;5.60;;;0.80;;
37641;SDS011;23486;51.956;5.888;2022-07-30T12:33:47;2.58;;;0.60;;
37641;SDS011;23486;51.956;5.888;2022-07-30T12:36:22;2.80;;;0.50;;
37641;SDS011;23486;51.956;5.888;2022-07-30T12:38:59;4.07;;;0.60;;
37641;SDS011;23486;51.956;5.888;2022-07-30T12:41:41;3.22;;;0.70;;
37641;SDS011;23486;51.956;5.888;2022-07-30T12:44:08;2.72;;;0.95;;
37641;SDS011;23486;51.956;5.888;2022-07-30T12:46:38;3.03;;;0.60;;
37641;SDS011;23486;51.956;5.888;2022-07-30T12:49:05;3.95;;;0.60;;
37641;SDS011;23486;51.956;5.888;2022-07-30T12:51:32;2.15;;;0.57;;
37641;SDS011;23486;51.956;5.888;2022-07-30T12:54:12;2.60;;;0.43;;
37641;SDS011;23486;51.956;5.888;2022-07-30T12:56:41;4.68;;;0.60;;
37641;SDS011;23486;51.956;5.888;2022-07-30T12:59:24;2.00;;;0.50;;
37641;SDS011;23486;51.956;5.888;2022-07-30T13:01:53;2.55;;;0.60;;
37641;SDS011;23486;51.956;5.888;2022-07-30T13:04:21;2.42;;;0.50;;
37641;SDS011;23486;51.956;5.888;2022-07-30T13:07:05;2.63;;;0.50;;
37641;SDS011;23486;51.956;5.888;2022-07-30T13:09:32;2.75;;;0.43;;
37641;SDS011;23486;51.956;5.888;2022-07-30T13:12:01;5.53;;;0.50;;
37641;SDS011;23486;51.956;5.888;2022-07-30T13:14:31;2.42;;;0.60;;
37641;SDS011;23486;51.956;5.888;2022-07-30T13:16:57;5.15;;;0.73;;
37641;SDS011;23486;51.956;5.888;2022-07-30T13:19:27;3.00;;;0.57;;
37641;SDS011;23486;51.956;5.888;2022-07-30T13:21:52;2.35;;;0.60;;
37641;SDS011;23486;51.956;5.888;2022-07-30T13:24:18;3.85;;;0.60;;
37641;SDS011;23486;51.956;5.888;2022-07-30T13:26:44;2.90;;;0.50;;
37641;SDS011;23486;51.956;5.888;2022-07-30T13:29:10;1.70;;;0.50;;
37641;SDS011;23486;51.956;5.888;2022-07-30T13:31:37;4.10;;;0.70;;
37641;SDS011;23486;51.956;5.888;2022-07-30T13:34:04;1.83;;;0.60;;
37641;SDS011;23486;51.956;5.888;2022-07-30T13:36:30;4.60;;;0.45;;
37641;SDS011;23486;51.956;5.888;2022-07-30T13:38:55;1.70;;;0.40;;
37641;SDS011;23486;51.956;5.888;2022-07-30T13:41:21;3.70;;;0.50;;
37641;SDS011;23486;51.956;5.888;2022-07-30T13:43:46;1.45;;;0.40;;
37641;SDS011;23486;51.956;5.888;2022-07-30T13:46:12;4.30;;;0.50;;
37641;SDS011;23486;51.956;5.888;2022-07-30T13:48:37;2.10;;;0.60;;
37641;SDS011;23486;51.956;5.888;2022-07-30T13:51:03;1.85;;;0.40;;
37641;SDS011;23486;51.956;5.888;2022-07-30T13:53:29;1.98;;;0.40;;
37641;SDS011;23486;51.956;5.888;2022-07-30T13:55:58;3.70;;;0.50;;
37641;SDS011;23486;51.956;5.888;2022-07-30T13:58:24;2.58;;;0.60;;
37641;SDS011;23486;51.956;5.888;2022-07-30T14:00:49;3.25;;;0.40;;
37641;SDS011;23486;51.956;5.888;2022-07-30T14:03:15;4.75;;;0.50;;
37641;SDS011;23486;51.956;5.888;2022-07-30T14:05:41;2.40;;;0.40;;
37641;SDS011;23486;51.956;5.888;2022-07-30T14:08:07;3.17;;;0.40;;
37641;SDS011;23486;51.956;5.888;2022-07-30T14:10:37;2.20;;;0.32;;
37641;SDS011;23486;51.956;5.888;2022-07-30T14:13:04;3.63;;;0.50;;
37641;SDS011;23486;51.956;5.888;2022-07-30T14:15:31;2.80;;;0.40;;
37641;SDS011;23486;51.956;5.888;2022-07-30T14:17:58;3.10;;;0.50;;
37641;SDS011;23486;51.956;5.888;2022-07-30T14:20:24;2.97;;;0.30;;
37641;SDS011;23486;51.956;5.888;2022-07-30T14:22:50;3.45;;;0.50;;
37641;SDS011;23486;51.956;5.888;2022-07-30T14:25:22;1.53;;;0.37;;
37641;SDS011;23486;51.956;5.888;2022-07-30T14:27:48;1.45;;;0.30;;
37641;SDS011;23486;51.956;5.888;2022-07-30T14:30:14;3.22;;;0.40;;
37641;SDS011;23486;51.956;5.888;2022-07-30T14:32:40;1.73;;;0.40;;
37641;SDS011;23486;51.956;5.888;2022-07-30T14:35:07;1.52;;;0.40;;
37641;SDS011;23486;51.956;5.888;2022-07-30T14:37:33;4.82;;;0.50;;
37641;SDS011;23486;51.956;5.888;2022-07-30T14:40:03;3.05;;;0.50;;
37641;SDS011;23486;51.956;5.888;2022-07-30T14:42:30;3.00;;;0.30;;
37641;SDS011;23486;51.956;5.888;2022-07-30T14:44:55;2.97;;;0.40;;
37641;SDS011;23486;51.956;5.888;2022-07-30T14:47:21;1.63;;;0.40;;
37641;SDS011;23486;51.956;5.888;2022-07-30T14:49:47;1.85;;;0.40;;
37641;SDS011;23486;51.956;5.888;2022-07-30T14:52:12;2.25;;;0.40;;
37641;SDS011;23486;51.956;5.888;2022-07-30T14:54:38;4.53;;;0.40;;
37641;SDS011;23486;51.956;5.888;2022-07-30T14:57:03;2.58;;;0.30;;
37641;SDS011;23486;51.956;5.888;2022-07-30T14:59:32;2.67;;;0.40;;
37641;SDS011;23486;51.956;5.888;2022-07-30T15:01:58;1.15;;;0.35;;
37641;SDS011;23486;51.956;5.888;2022-07-30T15:04:23;3.42;;;0.40;;
37641;SDS011;23486;51.956;5.888;2022-07-30T15:06:49;1.45;;;0.40;;
37641;SDS011;23486;51.956;5.888;2022-07-30T15:09:15;3.05;;;0.50;;
37641;SDS011;23486;51.956;5.888;2022-07-30T15:11:40;2.92;;;0.60;;
37641;SDS011;23486;51.956;5.888;2022-07-30T15:14:09;2.47;;;0.38;;
37641;SDS011;23486;51.956;5.888;2022-07-30T15:16:36;1.45;;;0.35;;
37641;SDS011;23486;51.956;5.888;2022-07-30T15:19:02;3.90;;;0.40;;
37641;SDS011;23486;51.956;5.888;2022-07-30T15:21:27;1.90;;;0.40;;
37641;SDS011;23486;51.956;5.888;2022-07-30T15:23:53;1.35;;;0.30;;